Time;durP1;ratioP1;P1;durP2;ratioP2;P2;SDS_P1;SDS_P2;PMS_P1;PMS_P2;Temp;Humidity;BMP_temperature;BMP_pressure;BME280_temperature;BME280_humidity;BME280_pressure;Samples;Min_cycle;Max_cycle;Signal;HPM_P1;HPM_P2
2023/02/12 05:00:46;;;;;;;1.58;1.55;;;7.20;99.90;;;;;;5742678;23;20753;-70
2023/02/12 05:03:13;;;;;;;1.15;1.15;;;7.20;99.90;;;;;;4939174;28;20208;-69
2023/02/12 05:05:40;;;;;;;0.50;0.50;;;7.20;99.90;;;;;;4945692;29;20211;-69
2023/02/12 05:08:07;;;;;;;2.03;1.92;;;7.20;99.90;;;;;;4951030;28;20219;-71
2023/02/12 05:10:33;;;;;;;0.77;0.77;;;7.20;99.90;;;;;;4950289;28;20234;-70
2023/02/12 05:13:00;;;;;;;1.52;1.38;;;7.20;99.90;;;;;;4950703;29;20626;-68
2023/02/12 05:15:27;;;;;;;0.88;0.88;;;7.20;99.90;;;;;;4950083;28;20207;-67
2023/02/12 05:17:55;;;;;;;4.18;2.88;;;7.20;99.90;;;;;;4949165;29;20741;-70
2023/02/12 05:20:21;;;;;;;2.30;0.93;;;7.20;99.90;;;;;;4951086;28;20214;-71
2023/02/12 05:22:52;;;;;;;15.43;0.95;;;7.20;99.90;;;;;;4948787;28;20296;-70
2023/02/12 05:25:19;;;;;;;1.25;1.15;;;7.20;99.90;;;;;;4951466;28;20203;-69
2023/02/12 05:27:45;;;;;;;2.15;1.25;;;7.20;99.90;;;;;;4950264;29;20225;-69
2023/02/12 05:30:13;;;;;;;0.65;0.40;;;7.20;99.90;;;;;;4950189;28;20374;-69
2023/02/12 05:32:39;;;;;;;1.52;0.70;;;7.20;99.90;;;;;;4949170;28;20214;-66
2023/02/12 05:35:08;;;;;;;0.65;0.65;;;7.20;99.90;;;;;;4942012;28;20207;-69
2023/02/12 05:37:35;;;;;;;1.58;1.23;;;7.20;99.90;;;;;;4953976;28;20212;-68
2023/02/12 05:40:02;;;;;;;1.27;1.23;;;7.20;99.90;;;;;;4968571;29;20370;-69
2023/02/12 05:42:29;;;;;;;1.98;1.60;;;7.20;99.90;;;;;;4951295;28;20231;-68
2023/02/12 05:44:56;;;;;;;1.88;1.50;;;7.20;99.90;;;;;;4948960;28;20208;-70
2023/02/12 05:47:23;;;;;;;1.77;1.00;;;7.20;99.90;;;;;;4949730;29;20219;-69
2023/02/12 05:49:49;;;;;;;1.05;1.05;;;7.20;99.90;;;;;;4949512;28;20540;-69
2023/02/12 05:52:18;;;;;;;1.75;1.65;;;7.20;99.90;;;;;;4950377;28;20278;-70
2023/02/12 05:54:44;;;;;;;2.05;1.10;;;7.20;99.90;;;;;;4948153;28;20215;-70
2023/02/12 05:57:11;;;;;;;0.90;0.82;;;7.20;99.90;;;;;;4949883;28;20229;-68
2023/02/12 05:59:38;;;;;;;2.50;0.80;;;7.20;99.90;;;;;;4950441;28;20219;-69
2023/02/12 06:02:05;;;;;;;1.33;0.68;;;7.10;99.90;;;;;;4950341;28;20231;-70
2023/02/12 06:04:32;;;;;;;2.05;0.68;;;7.10;99.90;;;;;;4947157;29;20263;-69
2023/02/12 06:07:00;;;;;;;1.92;1.23;;;7.10;99.90;;;;;;4950292;29;20229;-70
2023/02/12 06:09:28;;;;;;;1.95;1.52;;;7.10;99.90;;;;;;4948123;28;20223;-69
2023/02/12 06:11:55;;;;;;;0.80;0.80;;;7.10;99.90;;;;;;4950994;28;20228;-70
2023/02/12 06:14:22;;;;;;;1.45;1.33;;;7.10;99.90;;;;;;4949612;28;20216;-69
2023/02/12 06:16:50;;;;;;;1.50;0.93;;;7.10;99.90;;;;;;4949329;28;20220;-70
2023/02/12 06:19:18;;;;;;;2.22;1.30;;;7.10;99.90;;;;;;4950573;28;20214;-70
2023/02/12 06:21:45;;;;;;;1.17;0.55;;;7.10;99.90;;;;;;4952705;28;20229;-70
2023/02/12 06:24:13;;;;;;;2.50;0.55;;;7.10;99.90;;;;;;4946727;28;20634;-69
2023/02/12 06:26:41;;;;;;;0.82;0.82;;;7.10;99.90;;;;;;4950033;28;20207;-70
2023/02/12 06:29:08;;;;;;;2.35;2.17;;;7.10;99.90;;;;;;4944342;29;20204;-70
2023/02/12 06:31:36;;;;;;;1.60;1.50;;;7.10;99.90;;;;;;4949562;28;20254;-69
2023/02/12 06:34:06;;;;;;;1.17;0.65;;;7.10;99.90;;;;;;4950168;28;20606;-70
2023/02/12 06:36:33;;;;;;;1.92;1.05;;;7.10;99.90;;;;;;4951834;28;20215;-70
2023/02/12 06:39:01;;;;;;;0.82;0.82;;;7.10;99.90;;;;;;4951743;28;20229;-71
2023/02/12 06:41:28;;;;;;;1.80;1.50;;;7.10;99.90;;;;;;4954859;29;20223;-70
2023/02/12 06:43:56;;;;;;;8.05;2.45;;;7.10;99.90;;;;;;4951212;29;20271;-68
2023/02/12 06:46:23;;;;;;;0.65;0.65;;;7.10;99.90;;;;;;4954240;28;20220;-69
2023/02/12 06:48:53;;;;;;;9.40;1.60;;;7.20;99.90;;;;;;4952394;29;20210;-70
2023/02/12 06:51:20;;;;;;;3.25;1.40;;;7.10;99.90;;;;;;4953916;28;20341;-68
2023/02/12 06:53:47;;;;;;;8.88;1.92;;;7.10;99.90;;;;;;4952780;28;20273;-68
2023/02/12 06:56:14;;;;;;;4.00;2.40;;;7.20;99.90;;;;;;4950486;28;20744;-69
2023/02/12 06:58:42;;;;;;;0.28;0.28;;;7.20;99.90;;;;;;4950939;28;20216;-69
2023/02/12 07:01:12;;;;;;;11.52;3.47;;;7.20;99.90;;;;;;4967599;23;20239;-69
2023/02/12 07:03:39;;;;;;;4.20;1.45;;;7.20;99.90;;;;;;4932497;29;20269;-69
2023/02/12 07:06:06;;;;;;;5.55;2.30;;;7.20;99.90;;;;;;4932353;29;20210;-69
2023/02/12 07:08:33;;;;;;;1.48;1.38;;;7.20;99.90;;;;;;4936671;29;20280;-69
2023/02/12 07:11:00;;;;;;;1.95;1.85;;;7.20;99.90;;;;;;4936192;29;20663;-69
2023/02/12 07:13:26;;;;;;;1.23;1.08;;;7.20;99.90;;;;;;4923868;29;20221;-68
2023/02/12 07:15:53;;;;;;;2.17;1.67;;;7.20;99.90;;;;;;4909326;29;20262;-69
2023/02/12 07:18:21;;;;;;;7.30;3.53;;;7.20;99.90;;;;;;4920178;29;20214;-69
2023/02/12 07:20:48;;;;;;;3.03;2.67;;;7.20;99.90;;;;;;4912652;29;20236;-69
2023/02/12 07:23:14;;;;;;;7.45;3.42;;;7.30;99.90;;;;;;4920705;29;20212;-69
2023/02/12 07:25:41;;;;;;;7.45;2.83;;;7.30;99.90;;;;;;4916171;29;20212;-70
2023/02/12 07:28:08;;;;;;;3.05;2.85;;;7.30;99.90;;;;;;4926812;29;20224;-70
2023/02/12 07:30:34;;;;;;;3.30;2.35;;;7.30;99.90;;;;;;4917096;29;20763;-70
2023/02/12 07:33:01;;;;;;;5.40;1.95;;;7.30;99.90;;;;;;4920115;29;20215;-70
2023/02/12 07:35:30;;;;;;;1.63;1.58;;;7.40;99.90;;;;;;4914679;29;20288;-69
2023/02/12 07:37:58;;;;;;;9.10;2.03;;;7.30;99.90;;;;;;4915189;29;20219;-69
2023/02/12 07:40:25;;;;;;;10.07;1.63;;;7.30;99.90;;;;;;4915573;29;20237;-70
2023/02/12 07:42:55;;;;;;;6.25;2.95;;;7.40;99.90;;;;;;4923373;29;20693;-69
2023/02/12 07:45:22;;;;;;;4.75;2.75;;;7.40;99.90;;;;;;4922591;29;20635;-69
2023/02/12 07:47:49;;;;;;;6.50;2.63;;;7.40;99.90;;;;;;4918489;29;20218;-69
2023/02/12 07:50:17;;;;;;;8.15;2.50;;;7.40;99.90;;;;;;4910617;29;20212;-69
2023/02/12 07:52:45;;;;;;;11.98;2.95;;;7.40;99.90;;;;;;4921006;29;20233;-70
2023/02/12 07:55:11;;;;;;;8.57;2.05;;;7.50;99.90;;;;;;4919180;29;20664;-69
2023/02/12 07:57:38;;;;;;;8.77;3.20;;;7.50;99.90;;;;;;4917388;29;20249;-69
2023/02/12 08:00:06;;;;;;;6.30;1.98;;;7.50;99.90;;;;;;4924865;29;20220;-69
2023/02/12 08:02:33;;;;;;;4.82;2.95;;;7.60;99.90;;;;;;4912471;29;20224;-69
2023/02/12 08:04:59;;;;;;;4.57;1.75;;;7.60;99.90;;;;;;4916335;29;20224;-69
2023/02/12 08:07:26;;;;;;;1.63;1.52;;;7.60;99.90;;;;;;4922871;29;20217;-71
2023/02/12 08:09:54;;;;;;;6.72;2.60;;;7.70;99.90;;;;;;4912156;29;20216;-70
2023/02/12 08:12:22;;;;;;;2.28;2.17;;;7.70;99.90;;;;;;4914447;29;20344;-69
2023/02/12 08:14:49;;;;;;;6.38;2.35;;;7.80;99.90;;;;;;4911946;29;20213;-69
2023/02/12 08:17:15;;;;;;;3.08;1.65;;;7.70;99.90;;;;;;4924728;29;20647;-68
2023/02/12 08:19:42;;;;;;;3.78;2.17;;;7.80;99.90;;;;;;4917882;29;20657;-69
2023/02/12 08:22:09;;;;;;;5.95;4.10;;;7.80;99.90;;;;;;4911153;29;20229;-68
2023/02/12 08:24:36;;;;;;;6.38;2.80;;;7.80;99.90;;;;;;4923899;29;20237;-69
2023/02/12 08:27:05;;;;;;;2.78;2.33;;;7.90;99.90;;;;;;4911518;29;20206;-69
2023/02/12 08:29:32;;;;;;;16.70;2.50;;;7.90;99.90;;;;;;4912598;29;20222;-70
2023/02/12 08:32:00;;;;;;;7.82;5.55;;;7.90;99.90;;;;;;4920940;29;20602;-69
2023/02/12 08:34:28;;;;;;;8.32;2.78;;;8.00;99.90;;;;;;4917416;29;20222;-69
2023/02/12 08:36:56;;;;;;;8.73;3.00;;;8.00;99.90;;;;;;4921679;29;20219;-69
2023/02/12 08:39:24;;;;;;;2.97;2.78;;;8.00;99.90;;;;;;4916744;29;20286;-69
2023/02/12 08:41:51;;;;;;;7.05;3.45;;;8.00;99.90;;;;;;4913152;29;20245;-69
2023/02/12 08:44:19;;;;;;;3.42;3.00;;;8.00;99.90;;;;;;4914612;29;20236;-69
2023/02/12 08:46:48;;;;;;;3.38;3.05;;;8.10;99.90;;;;;;4915465;29;20217;-69
2023/02/12 08:49:17;;;;;;;6.82;4.10;;;8.10;99.90;;;;;;4914945;29;20215;-70
2023/02/12 08:51:47;;;;;;;3.35;3.08;;;8.10;99.90;;;;;;4922392;29;20240;-70
2023/02/12 08:54:16;;;;;;;8.00;4.97;;;8.10;99.90;;;;;;4918681;29;20212;-69
2023/02/12 08:56:44;;;;;;;2.63;2.42;;;8.20;99.90;;;;;;4917549;29;20210;-69
2023/02/12 08:59:12;;;;;;;7.75;4.57;;;8.20;99.90;;;;;;4926092;29;20252;-69
2023/02/12 09:01:41;;;;;;;4.28;3.97;;;8.20;99.90;;;;;;4918232;29;20252;-70
2023/02/12 09:04:08;;;;;;;3.75;2.75;;;8.30;99.90;;;;;;4921129;29;20548;-69
2023/02/12 09:06:35;;;;;;;8.45;4.28;;;8.30;99.90;;;;;;4919300;29;20211;-70
2023/02/12 09:09:03;;;;;;;6.18;5.45;;;8.30;99.90;;;;;;4920352;29;21839;-69
2023/02/12 09:11:30;;;;;;;3.90;2.65;;;8.30;99.90;;;;;;4918133;29;20244;-69
2023/02/12 09:13:58;;;;;;;5.68;2.90;;;8.30;99.90;;;;;;4912546;29;20279;-69
2023/02/12 09:16:25;;;;;;;5.95;5.50;;;8.30;99.90;;;;;;4916658;29;20313;-69
2023/02/12 09:18:53;;;;;;;6.13;4.10;;;8.30;99.90;;;;;;4911656;29;20209;-69
2023/02/12 09:21:20;;;;;;;7.97;4.22;;;8.40;99.90;;;;;;4919006;29;20233;-69
2023/02/12 09:23:47;;;;;;;9.43;4.90;;;8.40;99.90;;;;;;4915877;29;20528;-69
2023/02/12 09:26:15;;;;;;;6.93;3.45;;;8.40;99.90;;;;;;4919537;29;20212;-69
2023/02/12 09:28:43;;;;;;;6.22;4.13;;;8.50;99.90;;;;;;4925672;29;20214;-69
2023/02/12 09:31:12;;;;;;;4.53;3.70;;;8.50;99.90;;;;;;4913422;29;20260;-69
2023/02/12 09:33:40;;;;;;;3.67;3.38;;;8.50;99.90;;;;;;4912604;29;20210;-69
2023/02/12 09:36:11;;;;;;;7.25;4.05;;;8.50;99.90;;;;;;4915150;29;20211;-69
2023/02/12 09:38:38;;;;;;;2.40;2.10;;;8.60;99.90;;;;;;4923715;29;20209;-69
2023/02/12 09:41:29;;;;;;;4.28;3.90;;;8.60;99.90;;;;;;4932757;29;20246;-69
2023/02/12 09:44:01;;;;;;;4.30;4.00;;;8.60;99.90;;;;;;4911373;29;20217;-70
2023/02/12 09:46:31;;;;;;;3.65;1.90;;;8.70;99.90;;;;;;4917643;29;20221;-69
2023/02/12 09:49:07;;;;;;;3.13;2.17;;;8.70;99.90;;;;;;4920633;29;20233;-70
2023/02/12 09:51:37;;;;;;;2.60;2.50;;;8.80;99.90;;;;;;4924325;29;20667;-69
2023/02/12 09:54:07;;;;;;;4.88;3.33;;;8.80;99.90;;;;;;4926475;29;20217;-69
2023/02/12 09:56:37;;;;;;;4.50;2.00;;;8.80;99.90;;;;;;4916727;29;20221;-69
2023/02/12 09:59:06;;;;;;;3.28;3.00;;;8.90;99.90;;;;;;4905388;29;20568;-69
2023/02/12 10:01:33;;;;;;;2.25;2.15;;;8.90;99.90;;;;;;4915750;29;20246;-70
2023/02/12 10:04:00;;;;;;;5.53;2.03;;;8.90;99.90;;;;;;4922148;29;20300;-70
2023/02/12 10:06:29;;;;;;;4.82;3.65;;;8.90;99.90;;;;;;4919741;29;20489;-70
2023/02/12 10:09:10;;;;;;;7.03;4.40;;;9.00;99.90;;;;;;4918863;29;20550;-69
2023/02/12 10:11:49;;;;;;;3.13;2.88;;;9.00;99.90;;;;;;4913668;29;20236;-69
2023/02/12 10:14:36;;;;;;;7.40;3.58;;;9.00;99.90;;;;;;4913015;29;20324;-70
2023/02/12 10:17:12;;;;;;;4.78;2.90;;;9.10;99.90;;;;;;4916598;29;20598;-70
2023/02/12 10:19:59;;;;;;;7.75;2.63;;;9.20;99.90;;;;;;4920809;29;20692;-69
2023/02/12 10:22:33;;;;;;;5.13;2.60;;;9.20;99.90;;;;;;4921423;29;20239;-68
2023/02/12 10:25:14;;;;;;;9.25;3.25;;;9.20;99.90;;;;;;4896166;29;20217;-69
2023/02/12 10:27:46;;;;;;;2.45;2.25;;;9.20;99.90;;;;;;4908584;29;20222;-70
2023/02/12 10:30:24;;;;;;;4.35;2.92;;;9.30;99.90;;;;;;4917407;29;20214;-69
2023/02/12 10:32:54;;;;;;;5.30;3.80;;;9.40;99.90;;;;;;4916195;29;20980;-69
2023/02/12 10:35:25;;;;;;;8.23;4.20;;;9.40;99.90;;;;;;4913885;29;20222;-69
2023/02/12 10:37:57;;;;;;;4.78;4.32;;;9.40;99.90;;;;;;4916511;29;20233;-68
2023/02/12 10:40:29;;;;;;;5.05;3.83;;;9.40;99.90;;;;;;4913880;29;20226;-69
2023/02/12 10:42:57;;;;;;;4.25;3.53;;;9.40;99.90;;;;;;4912924;29;20203;-70
2023/02/12 10:45:29;;;;;;;12.38;7.47;;;9.50;99.90;;;;;;4926604;29;20285;-68
2023/02/12 10:48:05;;;;;;;6.72;5.05;;;9.50;99.90;;;;;;4913602;29;20204;-70
2023/02/12 10:50:53;;;;;;;3.72;3.05;;;9.60;99.90;;;;;;4914212;29;20231;-70
2023/02/12 10:53:22;;;;;;;4.63;3.28;;;9.60;99.90;;;;;;4920571;29;20335;-67
2023/02/12 10:56:10;;;;;;;4.60;1.90;;;9.70;99.90;;;;;;4915533;29;20673;-69
2023/02/12 10:58:38;;;;;;;4.00;3.70;;;9.70;99.90;;;;;;4915995;29;20227;-68
2023/02/12 11:01:14;;;;;;;4.80;2.15;;;9.70;99.90;;;;;;4918968;29;20244;-68
2023/02/12 11:03:41;;;;;;;3.42;2.30;;;9.70;99.90;;;;;;4918610;29;20223;-68
2023/02/12 11:06:14;;;;;;;3.25;2.90;;;9.70;99.90;;;;;;4925104;29;20218;-69
2023/02/12 11:08:41;;;;;;;2.35;2.20;;;9.70;99.90;;;;;;4924787;29;20215;-71
2023/02/12 11:11:12;;;;;;;2.28;1.88;;;9.70;99.90;;;;;;4916940;29;20608;-69
2023/02/12 11:13:41;;;;;;;2.97;2.78;;;9.60;99.90;;;;;;4916293;29;20227;-69
2023/02/12 11:16:08;;;;;;;1.40;1.30;;;9.60;99.90;;;;;;4914852;29;20356;-69
2023/02/12 11:18:36;;;;;;;4.10;2.55;;;9.50;99.90;;;;;;4917765;29;20231;-69
2023/02/12 11:21:05;;;;;;;2.60;2.42;;;9.60;99.90;;;;;;4930506;29;20223;-70
2023/02/12 11:23:34;;;;;;;4.03;1.75;;;9.60;99.90;;;;;;4930200;29;20215;-69
2023/02/12 11:26:04;;;;;;;1.05;0.93;;;9.60;99.90;;;;;;4925464;29;20220;-69
2023/02/12 11:28:35;;;;;;;1.90;1.80;;;9.70;99.90;;;;;;4929359;29;20213;-69
2023/02/12 11:31:17;;;;;;;2.67;1.85;;;9.70;99.90;;;;;;4921314;29;20321;-69
2023/02/12 11:33:44;;;;;;;1.90;1.42;;;9.60;99.90;;;;;;4928069;29;20236;-68
2023/02/12 11:36:23;;;;;;;3.00;2.25;;;9.60;99.90;;;;;;4936640;29;20211;-69
2023/02/12 11:38:53;;;;;;;7.95;2.47;;;9.50;99.90;;;;;;4936445;29;20217;-69
2023/02/12 11:41:27;;;;;;;0.82;0.82;;;9.50;99.90;;;;;;4937091;29;20233;-69
2023/02/12 11:43:55;;;;;;;3.05;1.85;;;9.50;99.90;;;;;;4936467;29;20208;-69
2023/02/12 11:46:25;;;;;;;1.38;1.10;;;9.50;99.90;;;;;;4923796;29;20216;-69
2023/02/12 11:48:53;;;;;;;1.50;1.50;;;9.50;99.90;;;;;;4924468;29;20214;-71
2023/02/12 11:51:25;;;;;;;4.13;3.80;;;9.60;99.90;;;;;;4916429;29;20243;-68
2023/02/12 11:53:53;;;;;;;5.32;2.08;;;9.60;99.90;;;;;;4915661;29;20252;-69
2023/02/12 11:56:21;;;;;;;1.63;1.10;;;9.60;99.90;;;;;;4916175;29;20221;-69
2023/02/12 11:58:49;;;;;;;0.52;0.50;;;9.60;99.90;;;;;;4916114;29;20214;-68
2023/02/12 12:01:21;;;;;;;1.35;1.17;;;9.60;99.90;;;;;;4916130;29;20246;-69
2023/02/12 12:03:53;;;;;;;0.98;0.88;;;9.60;99.90;;;;;;4914802;29;20214;-69
2023/02/12 12:06:27;;;;;;;2.50;1.13;;;9.60;99.90;;;;;;4924377;29;20208;-68
2023/02/12 12:09:00;;;;;;;2.60;1.95;;;9.60;99.90;;;;;;4916139;29;20358;-69
2023/02/12 12:11:31;;;;;;;1.55;0.98;;;9.60;99.90;;;;;;4916693;29;20239;-68
2023/02/12 12:14:02;;;;;;;2.47;2.22;;;9.60;99.90;;;;;;4915877;29;20593;-68
2023/02/12 12:22:25;;;;;;;1.30;1.30;;;9.70;99.90;;;;;;4914047;29;20235;-68
2023/02/12 12:24:57;;;;;;;1.10;1.10;;;9.70;99.90;;;;;;4917498;29;20771;-69
2023/02/12 12:30:24;;;;;;;1.17;0.93;;;9.70;99.90;;;;;;4922069;29;20737;-69
2023/02/12 12:33:01;;;;;;;0.50;0.50;;;9.70;99.90;;;;;;4923098;29;20224;-69
2023/02/12 12:35:40;;;;;;;1.48;1.48;;;9.70;99.90;;;;;;4922986;29;20222;-69
2023/02/12 12:38:18;;;;;;;1.40;1.30;;;9.80;99.90;;;;;;4913206;29;20223;-69
2023/02/12 12:40:58;;;;;;;1.35;1.27;;;9.80;99.90;;;;;;4914991;29;20236;-70
2023/02/12 12:43:36;;;;;;;0.55;0.55;;;9.80;99.90;;;;;;4914735;29;20256;-69
2023/02/12 12:46:17;;;;;;;0.95;0.95;;;9.80;99.90;;;;;;4914456;29;20287;-70
2023/02/12 12:48:59;;;;;;;0.50;0.50;;;9.80;99.90;;;;;;4912902;29;20215;-69
2023/02/12 12:51:41;;;;;;;1.65;0.70;;;9.80;99.90;;;;;;4930735;29;20234;-69
2023/02/12 12:54:21;;;;;;;1.65;1.55;;;9.80;99.90;;;;;;4923029;29;20242;-69
2023/02/12 12:56:58;;;;;;;1.13;0.77;;;9.70;99.90;;;;;;4923311;29;20714;-69
2023/02/12 12:59:56;;;;;;;2.30;1.13;;;9.70;99.90;;;;;;4914177;29;20855;-69
2023/02/12 13:02:49;;;;;;;1.08;1.08;;;9.70;99.90;;;;;;4911354;29;20262;-68
2023/02/12 13:05:52;;;;;;;0.80;0.80;;;9.70;99.90;;;;;;4910411;29;20217;-69
2023/02/12 13:08:42;;;;;;;1.80;1.80;;;9.70;99.90;;;;;;4914760;29;20288;-68
2023/02/12 13:11:22;;;;;;;1.20;1.17;;;9.70;99.90;;;;;;4912830;29;20231;-70
2023/02/12 13:13:53;;;;;;;1.05;1.05;;;9.80;99.90;;;;;;4933047;29;20234;-69
2023/02/12 13:16:26;;;;;;;1.23;1.23;;;9.80;99.90;;;;;;4934001;29;20218;-69
2023/02/12 13:18:58;;;;;;;1.50;1.50;;;9.70;99.90;;;;;;4933358;29;20226;-70
2023/02/12 13:21:38;;;;;;;1.35;1.35;;;9.70;99.90;;;;;;4933618;29;20235;-69
2023/02/12 13:24:15;;;;;;;1.35;1.35;;;9.70;99.90;;;;;;4933036;29;20203;-69
2023/02/12 13:26:49;;;;;;;0.93;0.93;;;9.70;99.90;;;;;;4916291;29;20330;-68
2023/02/12 13:29:20;;;;;;;0.60;0.60;;;9.70;99.90;;;;;;4920062;29;20238;-69
2023/02/12 13:31:50;;;;;;;1.30;1.30;;;9.70;99.90;;;;;;4916298;29;20229;-69
2023/02/12 13:34:19;;;;;;;1.00;0.98;;;9.80;99.90;;;;;;4917981;29;20227;-69
2023/02/12 13:36:48;;;;;;;0.85;0.70;;;9.80;99.90;;;;;;4924669;29;20212;-69
2023/02/12 13:39:27;;;;;;;6.85;1.60;;;9.80;99.90;;;;;;4928209;29;20311;-69
2023/02/12 13:42:12;;;;;;;2.25;2.00;;;9.70;99.90;;;;;;4919232;29;20238;-69
2023/02/12 13:44:46;;;;;;;2.25;1.23;;;9.70;99.90;;;;;;4926348;29;20212;-70
2023/02/12 13:47:22;;;;;;;1.85;1.40;;;9.70;99.90;;;;;;4921779;29;20221;-68
2023/02/12 13:49:54;;;;;;;0.85;0.85;;;9.70;99.90;;;;;;4921150;29;20217;-70
2023/02/12 13:52:30;;;;;;;3.58;1.98;;;9.70;99.90;;;;;;4921858;29;20232;-69
2023/02/12 13:55:14;;;;;;;2.28;1.27;;;9.70;99.90;;;;;;4894968;29;20210;-69
2023/02/12 13:57:41;;;;;;;1.60;1.33;;;9.70;99.90;;;;;;4911195;29;20359;-69
2023/02/12 14:00:48;;;;;;;1.35;1.13;;;9.60;99.90;;;;;;4920107;29;20212;-69
2023/02/12 14:03:16;;;;;;;1.10;1.05;;;9.60;99.90;;;;;;4912138;29;20204;-70
2023/02/12 14:05:42;;;;;;;1.92;1.73;;;9.60;99.90;;;;;;4914786;29;20212;-71
2023/02/12 14:08:38;;;;;;;2.70;1.75;;;9.60;99.90;;;;;;4915214;29;20208;-70
2023/02/12 14:11:08;;;;;;;1.13;1.13;;;9.60;99.90;;;;;;4915838;29;20229;-71
2023/02/12 14:13:46;;;;;;;1.85;1.27;;;9.60;99.90;;;;;;4915852;29;20230;-70
2023/02/12 14:16:36;;;;;;;1.75;1.65;;;9.60;99.90;;;;;;4922148;29;20663;-70
2023/02/12 14:19:36;;;;;;;3.33;0.90;;;9.60;99.90;;;;;;4913119;29;20214;-70
2023/02/12 14:22:11;;;;;;;1.48;1.48;;;9.60;99.90;;;;;;4915556;29;20231;-69
2023/02/12 14:24:51;;;;;;;2.20;1.98;;;9.60;99.90;;;;;;4914629;29;20207;-70
2023/02/12 14:27:27;;;;;;;2.33;1.20;;;9.60;99.90;;;;;;4916002;29;20221;-71
2023/02/12 14:30:34;;;;;;;2.95;1.75;;;9.60;99.90;;;;;;4917695;29;20360;-70
2023/02/12 14:33:20;;;;;;;1.58;0.93;;;9.60;99.90;;;;;;4919879;29;20220;-69
2023/02/12 14:35:49;;;;;;;1.92;1.33;;;9.50;99.90;;;;;;4919997;29;20207;-69
2023/02/12 14:38:59;;;;;;;3.00;1.95;;;9.60;99.90;;;;;;4915517;29;20209;-69
2023/02/12 14:41:37;;;;;;;1.77;1.63;;;9.60;99.90;;;;;;4934512;29;20321;-70
2023/02/12 14:44:43;;;;;;;2.55;2.45;;;9.60;99.90;;;;;;4936555;29;20213;-70
2023/02/12 14:47:45;;;;;;;2.30;1.83;;;9.60;99.90;;;;;;4928263;29;20218;-70
2023/02/12 14:50:17;;;;;;;1.50;1.50;;;9.60;99.90;;;;;;4908839;29;20217;-69
2023/02/12 14:52:52;;;;;;;2.40;2.20;;;9.50;99.90;;;;;;4928465;29;20263;-70
2023/02/12 14:55:23;;;;;;;0.80;0.80;;;9.50;99.90;;;;;;4933434;29;20323;-70
2023/02/12 14:57:50;;;;;;;2.45;1.50;;;9.50;99.90;;;;;;4928277;29;20418;-69
2023/02/12 15:00:25;;;;;;;3.97;3.67;;;9.50;99.90;;;;;;4928215;29;20208;-69
2023/02/12 15:02:56;;;;;;;7.35;2.13;;;9.50;99.90;;;;;;4926471;29;20220;-69
2023/02/12 15:05:26;;;;;;;1.88;1.77;;;9.50;99.90;;;;;;4926077;29;20221;-69
2023/02/12 15:07:57;;;;;;;4.13;3.78;;;9.50;99.90;;;;;;4919229;29;20213;-69
2023/02/12 15:10:30;;;;;;;2.42;2.22;;;9.50;99.90;;;;;;4919407;29;20300;-69
2023/02/12 15:13:07;;;;;;;3.75;2.60;;;9.40;99.90;;;;;;4920138;29;20215;-69
2023/02/12 15:15:39;;;;;;;7.93;2.83;;;9.40;99.90;;;;;;4920100;29;20221;-70
2023/02/12 15:18:14;;;;;;;1.77;1.67;;;9.40;99.90;;;;;;4919871;29;20216;-70
2023/02/12 15:20:48;;;;;;;1.90;1.83;;;9.40;99.90;;;;;;4920162;29;20231;-69
2023/02/12 15:23:41;;;;;;;1.63;1.63;;;9.40;99.90;;;;;;4923469;29;20209;-70
2023/02/12 15:26:15;;;;;;;2.45;1.30;;;9.30;99.90;;;;;;4918407;29;20221;-70
2023/02/12 15:28:43;;;;;;;1.40;1.40;;;9.30;99.90;;;;;;4918599;29;20875;-70
2023/02/12 15:31:10;;;;;;;1.67;1.30;;;9.30;99.90;;;;;;4916828;29;20231;-70
2023/02/12 15:33:41;;;;;;;9.82;3.63;;;9.30;99.90;;;;;;4925173;29;21053;-70
2023/02/12 15:36:11;;;;;;;4.70;3.10;;;9.30;99.90;;;;;;4916709;29;20594;-69
2023/02/12 15:38:40;;;;;;;1.92;1.73;;;9.30;99.90;;;;;;4918603;29;20694;-70
2023/02/12 15:41:08;;;;;;;2.00;1.90;;;9.30;99.90;;;;;;4929137;29;20254;-68
2023/02/12 15:43:40;;;;;;;3.95;3.10;;;9.30;99.90;;;;;;4922296;29;20465;-69
2023/02/12 15:46:16;;;;;;;4.20;2.75;;;9.30;99.90;;;;;;4920547;29;20215;-69
2023/02/12 15:48:44;;;;;;;3.90;2.90;;;9.30;99.90;;;;;;4919707;29;20217;-69
2023/02/12 15:51:20;;;;;;;7.85;3.08;;;9.20;99.90;;;;;;4916931;29;20234;-69
2023/02/12 15:53:47;;;;;;;8.73;3.05;;;9.20;99.90;;;;;;4926170;29;20300;-68
2023/02/12 15:56:17;;;;;;;5.15;2.75;;;9.20;99.90;;;;;;4922767;29;20225;-70
2023/02/12 15:58:50;;;;;;;1.85;1.75;;;9.20;99.90;;;;;;4916256;29;20284;-69
2023/02/12 16:01:19;;;;;;;3.30;2.42;;;9.20;99.90;;;;;;4916112;29;20244;-68
2023/02/12 16:03:50;;;;;;;3.92;1.58;;;9.10;99.90;;;;;;4915973;29;20729;-69
2023/02/12 16:06:20;;;;;;;1.95;1.58;;;9.10;99.90;;;;;;4916583;29;20232;-69
2023/02/12 16:08:58;;;;;;;2.40;1.88;;;9.10;99.90;;;;;;4921164;29;20221;-68
2023/02/12 16:11:27;;;;;;;1.30;1.15;;;9.10;99.90;;;;;;4910279;29;20645;-68
2023/02/12 16:13:58;;;;;;;1.85;1.50;;;9.00;99.90;;;;;;4913150;29;20230;-69
2023/02/12 16:16:27;;;;;;;5.22;1.98;;;9.00;99.90;;;;;;4921902;29;20567;-69
2023/02/12 16:19:06;;;;;;;3.95;3.28;;;9.00;99.90;;;;;;4915825;29;20312;-69
2023/02/12 16:21:38;;;;;;;2.05;1.85;;;8.90;99.90;;;;;;4919481;29;20230;-69
2023/02/12 16:24:19;;;;;;;6.72;1.58;;;8.90;99.90;;;;;;4910322;29;20213;-69
2023/02/12 16:26:47;;;;;;;19.45;3.50;;;8.90;99.90;;;;;;4915454;29;20221;-69
2023/02/12 16:29:17;;;;;;;3.40;2.85;;;8.90;99.90;;;;;;4928325;29;20204;-69
2023/02/12 16:31:53;;;;;;;2.25;2.20;;;8.90;99.90;;;;;;4931614;29;20263;-70
2023/02/12 16:34:29;;;;;;;2.58;2.38;;;8.90;99.90;;;;;;4911438;29;20248;-69
2023/02/12 16:36:57;;;;;;;8.48;5.03;;;8.90;99.90;;;;;;4916767;29;20218;-70
2023/02/12 16:40:09;;;;;;;1.85;1.75;;;8.90;99.90;;;;;;4914215;29;20210;-69
2023/02/12 16:42:35;;;;;;;1.92;1.83;;;8.80;99.90;;;;;;4912187;29;20222;-69
2023/02/12 16:45:36;;;;;;;1.20;1.10;;;8.80;99.90;;;;;;4915074;29;20206;-68
2023/02/12 16:48:09;;;;;;;7.53;2.03;;;8.80;99.90;;;;;;4926653;29;20212;-69
2023/02/12 16:50:38;;;;;;;3.30;2.72;;;8.80;99.90;;;;;;4920478;29;20639;-69
2023/02/12 16:53:21;;;;;;;2.95;2.75;;;8.80;99.90;;;;;;4918519;29;20276;-70
2023/02/12 16:55:48;;;;;;;3.42;3.20;;;8.70;99.90;;;;;;4933223;29;20217;-70
2023/02/12 16:58:15;;;;;;;2.40;2.30;;;8.70;99.90;;;;;;4929833;29;20219;-69
2023/02/12 17:00:42;;;;;;;3.70;2.50;;;8.70;99.90;;;;;;4921389;29;20771;-69
2023/02/12 17:03:11;;;;;;;2.13;2.13;;;8.70;99.90;;;;;;4916431;29;20213;-70
2023/02/12 17:05:38;;;;;;;2.97;2.88;;;8.70;99.90;;;;;;4916945;29;20214;-70
2023/02/12 17:08:12;;;;;;;1.65;1.60;;;8.70;99.90;;;;;;4922482;29;20209;-70
2023/02/12 17:10:39;;;;;;;2.88;2.63;;;8.60;99.90;;;;;;4917398;29;20236;-70
2023/02/12 17:13:05;;;;;;;2.40;2.30;;;8.60;99.90;;;;;;4927262;29;20220;-69
2023/02/12 17:15:40;;;;;;;3.72;3.03;;;8.70;99.90;;;;;;4920224;29;20260;-70
2023/02/12 17:18:07;;;;;;;4.22;2.70;;;8.60;99.90;;;;;;4920707;29;20209;-68
2023/02/12 17:20:34;;;;;;;5.55;3.83;;;8.60;99.90;;;;;;4924525;29;20236;-70
2023/02/12 17:23:00;;;;;;;5.43;4.70;;;8.60;99.90;;;;;;4922199;29;20222;-67
2023/02/12 17:25:28;;;;;;;5.68;4.00;;;8.60;99.90;;;;;;4928250;29;20210;-68
2023/02/12 17:27:55;;;;;;;5.20;1.55;;;8.60;99.90;;;;;;4919676;29;20209;-70
2023/02/12 17:30:23;;;;;;;2.88;2.55;;;8.60;99.90;;;;;;4922530;29;20221;-70
2023/02/12 17:32:49;;;;;;;6.65;3.10;;;8.60;99.90;;;;;;4928683;29;20275;-69
2023/02/12 17:35:16;;;;;;;3.63;3.42;;;8.50;99.90;;;;;;4927916;29;20244;-69
2023/02/12 17:37:43;;;;;;;0.85;0.85;;;8.50;99.90;;;;;;4932172;29;20213;-67
2023/02/12 17:40:11;;;;;;;1.45;1.35;;;8.50;99.90;;;;;;4920344;29;20632;-69
2023/02/12 17:42:39;;;;;;;4.72;2.95;;;8.50;99.90;;;;;;4931707;29;20256;-68
2023/02/12 17:45:07;;;;;;;3.20;2.67;;;8.50;99.90;;;;;;4916164;29;20219;-69
2023/02/12 17:47:38;;;;;;;3.63;2.15;;;8.50;99.90;;;;;;4916987;29;20220;-68
2023/02/12 17:50:07;;;;;;;2.03;1.90;;;8.50;99.90;;;;;;4918413;29;20797;-69
2023/02/12 17:52:34;;;;;;;2.10;1.52;;;8.50;99.90;;;;;;4916433;29;20214;-70
2023/02/12 17:55:00;;;;;;;1.25;1.15;;;8.50;99.90;;;;;;4920009;29;20229;-69
2023/02/12 17:57:27;;;;;;;1.05;1.05;;;8.50;99.90;;;;;;4926758;29;20207;-68
2023/02/12 17:59:56;;;;;;;3.92;2.22;;;8.40;99.90;;;;;;4919329;29;20215;-68
2023/02/12 18:02:23;;;;;;;2.40;2.25;;;8.40;99.90;;;;;;4914716;29;20245;-70
2023/02/12 18:04:50;;;;;;;2.60;2.40;;;8.40;99.90;;;;;;4920224;29;20221;-69
2023/02/12 18:07:16;;;;;;;2.10;2.00;;;8.40;99.90;;;;;;4925067;29;20213;-68
2023/02/12 18:09:43;;;;;;;1.83;1.70;;;8.40;99.90;;;;;;4925291;29;20213;-69
2023/02/12 18:12:10;;;;;;;2.00;1.90;;;8.40;99.90;;;;;;4924406;29;20260;-68
2023/02/12 18:14:37;;;;;;;8.85;1.80;;;8.40;99.90;;;;;;4925806;29;20233;-69
2023/02/12 18:17:05;;;;;;;3.85;2.83;;;8.40;99.90;;;;;;4928005;29;20206;-69
2023/02/12 18:19:31;;;;;;;3.08;2.88;;;8.30;99.90;;;;;;4926796;29;20213;-68
2023/02/12 18:21:58;;;;;;;2.63;2.33;;;8.40;99.90;;;;;;4919924;29;20255;-69
2023/02/12 18:24:25;;;;;;;2.35;2.25;;;8.30;99.90;;;;;;4926095;29;20283;-69
2023/02/12 18:26:52;;;;;;;2.10;1.90;;;8.30;99.90;;;;;;4923840;29;20326;-68
2023/02/12 18:29:18;;;;;;;4.45;2.85;;;8.30;99.90;;;;;;4936602;29;20208;-69